Time,TemperatureF,DewpointF,PressureIn,WindDirection,WindDirectionDegrees,WindSpeedMPH,WindSpeedGustMPH,Humidity,HourlyPrecipIn,Conditions,Clouds,dailyrainin,SoftwareType,DateUTC
2013-03-05 00:02:00,19.0,15.0,-100.00,ESE,105,1.0,3.0,83,-99.99,,,-99.99,,2013-03-05 05:02:00,
2013-03-05 00:12:00,19.0,15.0,-100.00,ESE,105,1.0,3.0,83,-99.99,,,-99.99,,2013-03-05 05:12:00,
2013-03-05 00:22:00,19.0,15.0,-100.00,North,10,2.0,4.0,84,-99.99,,,-99.99,,2013-03-05 05:22:00,
2013-03-05 00:32:00,18.0,14.0,-100.00,NNE,20,2.0,4.0,84,-99.99,,,-99.99,,2013-03-05 05:32:00,
2013-03-05 00:42:00,18.0,14.0,-100.00,NNE,20,2.0,4.0,84,-99.99,,,-99.99,,2013-03-05 05:42:00,
2013-03-05 00:52:00,18.0,15.0,-100.00,NNW,335,3.0,6.0,85,-99.99,,,-99.99,,2013-03-05 05:52:00,
2013-03-05 01:01:00,18.0,15.0,-100.00,NNE,20,4.0,6.0,85,-99.99,,,-99.99,,2013-03-05 06:01:00,
2013-03-05 01:11:00,18.0,15.0,-100.00,NNE,20,4.0,6.0,85,-99.99,,,-99.99,,2013-03-05 06:11:00,
2013-03-05 01:22:00,18.0,15.0,-100.00,NNE,30,4.0,5.0,86,-99.99,,,-99.99,,2013-03-05 06:22:00,
2013-03-05 01:32:00,18.0,14.0,-100.00,North,5,3.0,5.0,86,-99.99,,,-99.99,,2013-03-05 06:32:00,
2013-03-05 01:42:00,18.0,14.0,-100.00,North,5,3.0,5.0,86,-99.99,,,-99.99,,2013-03-05 06:42:00,
2013-03-05 01:52:00,17.0,14.0,-100.00,NNW,345,4.0,6.0,88,-99.99,,,-99.99,,2013-03-05 06:52:00,
2013-03-05 02:01:00,17.0,14.0,-100.00,NNW,345,4.0,6.0,88,-99.99,,,-99.99,,2013-03-05 07:01:00,
2013-03-05 02:11:00,17.0,14.0,-100.00,NNW,345,4.0,6.0,88,-99.99,,,-99.99,,2013-03-05 07:11:00,
2013-03-05 02:22:00,17.0,14.0,-100.00,North,5,4.0,8.0,89,-99.99,,,-99.99,,2013-03-05 07:22:00,
2013-03-05 02:31:00,16.0,14.0,-100.00,North,5,4.0,6.0,89,-99.99,,,-99.99,,2013-03-05 07:31:00,
2013-03-05 02:41:00,16.0,14.0,-100.00,North,5,4.0,6.0,89,-99.99,,,-99.99,,2013-03-05 07:41:00,
2013-03-05 02:51:00,15.0,13.0,-100.00,North,5,4.0,6.0,91,-99.99,,,-99.99,,2013-03-05 07:51:00,
2013-03-05 03:02:00,15.0,13.0,-100.00,North,5,4.0,6.0,91,-99.99,,,-99.99,,2013-03-05 08:02:00,
2013-03-05 03:11:00,15.0,13.0,-100.00,North,5,4.0,6.0,91,-99.99,,,-99.99,,2013-03-05 08:11:00,
2013-03-05 03:21:00,14.0,12.0,-100.00,North,10,2.0,6.0,92,-99.99,,,-99.99,,2013-03-05 08:21:00,
2013-03-05 03:31:00,14.0,12.0,-100.00,North,10,2.0,6.0,92,-99.99,,,-99.99,,2013-03-05 08:31:00,
2013-03-05 03:52:00,16.0,14.0,-100.00,NE,45,6.0,11.0,93,-99.99,,,-99.99,,2013-03-05 08:52:00,
2013-03-05 04:01:00,16.0,14.0,-100.00,NNE,30,5.0,11.0,93,-99.99,,,-99.99,,2013-03-05 09:01:00,
2013-03-05 04:11:00,16.0,14.0,-100.00,NE,50,7.0,14.0,93,-99.99,,,-99.99,,2013-03-05 09:11:00,
2013-03-05 04:21:00,16.0,14.0,-100.00,NE,50,7.0,14.0,93,-99.99,,,-99.99,,2013-03-05 09:21:00,
2013-03-05 04:31:00,16.0,14.0,-100.00,NNE,30,6.0,12.0,92,-99.99,,,-99.99,,2013-03-05 09:31:00,
2013-03-05 04:42:00,16.0,14.0,-100.00,NNE,30,6.0,12.0,92,-99.99,,,-99.99,,2013-03-05 09:42:00,
2013-03-05 04:52:00,16.0,14.0,-100.00,NNE,25,4.0,10.0,91,-99.99,,,-99.99,,2013-03-05 09:52:00,
2013-03-05 05:01:00,16.0,14.0,-100.00,NNE,30,6.0,11.0,90,-99.99,,,-99.99,,2013-03-05 10:01:00,
2013-03-05 05:11:00,16.0,14.0,-100.00,NNE,30,6.0,11.0,90,-99.99,,,-99.99,,2013-03-05 10:11:00,
2013-03-05 05:21:00,17.0,14.0,-100.00,NNE,30,6.0,9.0,88,-99.99,,,-99.99,,2013-03-05 10:21:00,
2013-03-05 05:32:00,18.0,14.0,-100.00,NE,45,8.0,13.0,85,-99.99,,,-99.99,,2013-03-05 10:32:00,
2013-03-05 05:42:00,18.0,14.0,-100.00,NE,45,8.0,13.0,85,-99.99,,,-99.99,,2013-03-05 10:42:00,
2013-03-05 05:52:00,18.0,14.0,-100.00,NNE,30,6.0,11.0,83,-99.99,,,-99.99,,2013-03-05 10:52:00,
2013-03-05 06:01:00,18.0,14.0,-100.00,NNE,30,6.0,11.0,83,-99.99,,,-99.99,,2013-03-05 11:01:00,
2013-03-05 06:22:00,19.0,14.0,-100.00,NNE,30,6.0,13.0,80,-99.99,,,-99.99,,2013-03-05 11:22:00,
2013-03-05 06:32:00,18.0,13.0,-100.00,NE,35,10.0,16.0,78,-99.99,,,-99.99,,2013-03-05 11:32:00,
2013-03-05 06:42:00,18.0,13.0,-100.00,NE,35,10.0,16.0,78,-99.99,,,-99.99,,2013-03-05 11:42:00,
2013-03-05 06:52:00,18.0,12.0,-100.00,NNE,25,6.0,13.0,77,-99.99,,,-99.99,,2013-03-05 11:52:00,
2013-03-05 07:02:00,17.0,11.0,-100.00,NNE,30,7.0,14.0,77,-99.99,,,-99.99,,2013-03-05 12:02:00,
2013-03-05 07:12:00,17.0,11.0,-100.00,NNE,30,7.0,14.0,77,-99.99,,,-99.99,,2013-03-05 12:12:00,
2013-03-05 07:22:00,17.0,11.0,-100.00,NE,40,8.0,11.0,78,-99.99,,,-99.99,,2013-03-05 12:22:00,
2013-03-05 07:32:00,17.0,11.0,-100.00,NNE,30,7.0,11.0,78,-99.99,,,-99.99,,2013-03-05 12:32:00,
2013-03-05 07:42:00,17.0,11.0,-100.00,NNE,30,7.0,11.0,78,-99.99,,,-99.99,,2013-03-05 12:42:00,
2013-03-05 07:52:00,16.0,11.0,-100.00,NE,35,8.0,14.0,79,-99.99,,,-99.99,,2013-03-05 12:52:00,
2013-03-05 08:02:00,16.0,11.0,-100.00,NE,40,7.0,10.0,80,-99.99,,,-99.99,,2013-03-05 13:02:00,
2013-03-05 08:11:00,16.0,11.0,-100.00,NE,40,7.0,10.0,80,-99.99,,,-99.99,,2013-03-05 13:11:00,
2013-03-05 08:21:00,16.0,11.0,-100.00,NE,45,9.0,14.0,80,-99.99,,,-99.99,,2013-03-05 13:21:00,
2013-03-05 08:32:00,16.0,10.0,-100.00,NE,45,8.0,16.0,78,-99.99,,,-99.99,,2013-03-05 13:32:00,
2013-03-05 08:42:00,16.0,10.0,-100.00,NE,45,8.0,16.0,78,-99.99,,,-99.99,,2013-03-05 13:42:00,
2013-03-05 08:52:00,16.0,10.0,-100.00,NE,40,9.0,16.0,78,-99.99,,,-99.99,,2013-03-05 13:52:00,
2013-03-05 09:02:00,16.0,10.0,-100.00,NE,50,10.0,14.0,78,-99.99,,,-99.99,,2013-03-05 14:02:00,
2013-03-05 09:11:00,16.0,10.0,-100.00,NE,50,10.0,14.0,78,-99.99,,,-99.99,,2013-03-05 14:11:00,
2013-03-05 09:21:00,16.0,10.0,-100.00,NE,40,9.0,14.0,77,-99.99,,,-99.99,,2013-03-05 14:21:00,
2013-03-05 09:32:00,17.0,10.0,-100.00,NE,40,9.0,15.0,76,-99.99,,,-99.99,,2013-03-05 14:32:00,
2013-03-05 09:42:00,17.0,10.0,-100.00,NE,40,9.0,15.0,76,-99.99,,,-99.99,,2013-03-05 14:42:00,
2013-03-05 09:52:00,17.0,10.0,-100.00,NE,40,9.0,14.0,74,-99.99,,,-99.99,,2013-03-05 14:52:00,
2013-03-05 10:01:00,18.0,11.0,-100.00,NNE,25,6.0,14.0,72,-99.99,,,-99.99,,2013-03-05 15:01:00,
2013-03-05 10:11:00,18.0,11.0,-100.00,NNE,25,6.0,14.0,72,-99.99,,,-99.99,,2013-03-05 15:11:00,
2013-03-05 10:21:00,19.0,11.0,-100.00,NE,35,7.0,13.0,70,-99.99,,,-99.99,,2013-03-05 15:21:00,
2013-03-05 10:32:00,21.0,12.0,-100.00,NE,35,9.0,16.0,68,-99.99,,,-99.99,,2013-03-05 15:32:00,
2013-03-05 10:42:00,21.0,12.0,-100.00,NE,35,9.0,16.0,68,-99.99,,,-99.99,,2013-03-05 15:42:00,
2013-03-05 10:52:00,22.0,12.0,-100.00,NE,50,5.0,13.0,65,-99.99,,,-99.99,,2013-03-05 15:52:00,
2013-03-05 11:01:00,23.0,12.0,-100.00,NNE,30,11.0,14.0,64,-99.99,,,-99.99,,2013-03-05 16:01:00,
2013-03-05 11:11:00,23.0,12.0,-100.00,NNE,30,11.0,14.0,64,-99.99,,,-99.99,,2013-03-05 16:11:00,
2013-03-05 11:21:00,24.0,13.0,-100.00,NE,45,7.0,14.0,63,-99.99,,,-99.99,,2013-03-05 16:21:00,
2013-03-05 11:32:00,25.0,13.0,-100.00,NE,35,6.0,15.0,61,-99.99,,,-99.99,,2013-03-05 16:32:00,
2013-03-05 11:42:00,25.0,13.0,-100.00,NE,35,6.0,15.0,61,-99.99,,,-99.99,,2013-03-05 16:42:00,
2013-03-05 11:51:00,25.0,13.0,-100.00,NE,35,9.0,14.0,60,-99.99,,,-99.99,,2013-03-05 16:51:00,
2013-03-05 12:01:00,26.0,13.0,-100.00,NE,50,11.0,17.0,59,-99.99,,,-99.99,,2013-03-05 17:01:00,
2013-03-05 12:11:00,26.0,13.0,-100.00,NE,50,11.0,17.0,59,-99.99,,,-99.99,,2013-03-05 17:11:00,
2013-03-05 12:21:00,27.0,13.0,-100.00,NE,45,11.0,14.0,57,-99.99,,,-99.99,,2013-03-05 17:21:00,
2013-03-05 12:32:00,27.0,13.0,-100.00,NE,35,11.0,16.0,55,-99.99,,,-99.99,,2013-03-05 17:32:00,
2013-03-05 12:42:00,27.0,13.0,-100.00,NE,35,11.0,16.0,55,-99.99,,,-99.99,,2013-03-05 17:42:00,
2013-03-05 12:52:00,29.0,14.0,-100.00,NE,35,5.0,14.0,54,-99.99,,,-99.99,,2013-03-05 17:52:00,
2013-03-05 13:02:00,29.0,14.0,-100.00,NE,40,9.0,19.0,54,-99.99,,,-99.99,,2013-03-05 18:02:00,
2013-03-05 13:11:00,29.0,14.0,-100.00,NE,40,9.0,19.0,54,-99.99,,,-99.99,,2013-03-05 18:11:00,
2013-03-05 13:22:00,29.0,14.0,-100.00,NE,45,7.0,13.0,52,-99.99,,,-99.99,,2013-03-05 18:22:00,
2013-03-05 13:32:00,31.0,14.0,-100.00,NNE,30,8.0,12.0,50,-99.99,,,-99.99,,2013-03-05 18:32:00,
2013-03-05 13:42:00,31.0,14.0,-100.00,NNE,30,8.0,12.0,50,-99.99,,,-99.99,,2013-03-05 18:42:00,
2013-03-05 13:52:00,30.0,14.0,-100.00,NE,45,11.0,16.0,51,-99.99,,,-99.99,,2013-03-05 18:52:00,
2013-03-05 14:01:00,31.0,15.0,-100.00,NE,55,7.0,15.0,49,-99.99,,,-99.99,,2013-03-05 19:01:00,
2013-03-05 14:11:00,31.0,15.0,-100.00,NE,55,7.0,15.0,49,-99.99,,,-99.99,,2013-03-05 19:11:00,
2013-03-05 14:21:00,33.0,14.0,-100.00,NNE,25,5.0,14.0,45,-99.99,,,-99.99,,2013-03-05 19:21:00,
2013-03-05 14:32:00,33.0,16.0,-100.00,NNE,25,7.0,14.0,49,-99.99,,,-99.99,,2013-03-05 19:32:00,
2013-03-05 14:42:00,33.0,16.0,-100.00,NNE,25,7.0,14.0,49,-99.99,,,-99.99,,2013-03-05 19:42:00,
2013-03-05 14:52:00,34.0,17.0,-100.00,NE,50,9.0,14.0,49,-99.99,,,-99.99,,2013-03-05 19:52:00,
2013-03-05 15:01:00,34.0,16.0,-100.00,NE,35,9.0,15.0,47,-99.99,,,-99.99,,2013-03-05 20:01:00,
2013-03-05 15:11:00,34.0,16.0,-100.00,NE,35,9.0,15.0,47,-99.99,,,-99.99,,2013-03-05 20:11:00,
2013-03-05 15:20:00,34.0,17.0,-100.00,NE,55,9.0,14.0,49,-99.99,,,-99.99,,2013-03-05 20:20:00,
2013-03-05 15:21:00,34.0,17.0,-100.00,NNE,15,7.0,16.0,50,-99.99,,,-99.99,,2013-03-05 20:21:00,
2013-03-05 15:32:00,34.0,16.0,-100.00,ENE,65,9.0,14.0,48,-99.99,,,-99.99,,2013-03-05 20:32:00,
2013-03-05 15:42:00,34.0,16.0,-100.00,ENE,65,9.0,14.0,48,-99.99,,,-99.99,,2013-03-05 20:42:00,
2013-03-05 15:52:00,34.0,17.0,-100.00,NNE,15,10.0,14.0,48,-99.99,,,-99.99,,2013-03-05 20:52:00,
2013-03-05 16:02:00,34.0,17.0,-100.00,NE,55,9.0,14.0,49,-99.99,,,-99.99,,2013-03-05 21:02:00,
2013-03-05 16:11:00,34.0,17.0,-100.00,NE,55,9.0,14.0,49,-99.99,,,-99.99,,2013-03-05 21:11:00,
2013-03-05 16:32:00,35.0,18.0,-100.00,NNE,20,11.0,14.0,50,-99.99,,,-99.99,,2013-03-05 21:32:00,
2013-03-05 16:42:00,35.0,18.0,-100.00,NNE,20,11.0,14.0,50,-99.99,,,-99.99,,2013-03-05 21:42:00,
2013-03-05 16:52:00,36.0,18.0,-100.00,NNE,15,8.0,18.0,49,-99.99,,,-99.99,,2013-03-05 21:52:00,
2013-03-05 17:01:00,34.0,21.0,-100.00,NNE,25,10.0,19.0,59,-99.99,,,-99.99,,2013-03-05 22:01:00,
2013-03-05 17:11:00,34.0,21.0,-100.00,NNE,25,10.0,19.0,59,-99.99,,,-99.99,,2013-03-05 22:11:00,
2013-03-05 17:22:00,32.0,22.0,-100.00,NNE,20,12.0,19.0,66,-99.99,,,-99.99,,2013-03-05 22:22:00,
2013-03-05 17:32:00,31.0,22.0,-100.00,NNE,30,11.0,23.0,70,-99.99,,,-99.99,,2013-03-05 22:32:00,
2013-03-05 17:42:00,31.0,22.0,-100.00,NNE,30,11.0,23.0,70,-99.99,,,-99.99,,2013-03-05 22:42:00,
2013-03-05 17:52:00,30.0,22.0,-100.00,North,5,10.0,21.0,72,-99.99,,,-99.99,,2013-03-05 22:52:00,
2013-03-05 18:01:00,29.0,22.0,-100.00,NNE,30,12.0,20.0,75,-99.99,,,-99.99,,2013-03-05 23:01:00,
2013-03-05 18:11:00,29.0,22.0,-100.00,NNE,30,12.0,20.0,75,-99.99,,,-99.99,,2013-03-05 23:11:00,
2013-03-05 18:21:00,29.0,23.0,-100.00,North,5,11.0,20.0,78,-99.99,,,-99.99,,2013-03-05 23:21:00,
2013-03-05 18:32:00,28.0,23.0,-100.00,NNE,25,11.0,18.0,80,-99.99,,,-99.99,,2013-03-05 23:32:00,
2013-03-05 18:42:00,28.0,23.0,-100.00,NNE,25,11.0,18.0,80,-99.99,,,-99.99,,2013-03-05 23:42:00,
2013-03-05 18:52:00,27.0,22.0,-100.00,North,10,9.0,19.0,84,-99.99,,,-99.99,,2013-03-05 23:52:00,
2013-03-05 19:01:00,27.0,22.0,-100.00,North,10,9.0,19.0,84,-99.99,,,-99.99,,2013-03-06 00:01:00,
2013-03-05 19:11:00,27.0,22.0,-100.00,North,10,9.0,19.0,84,-99.99,,,-99.99,,2013-03-06 00:11:00,
2013-03-05 19:21:00,26.0,23.0,-100.00,NE,40,8.0,19.0,85,-99.99,,,-99.99,,2013-03-06 00:21:00,
2013-03-05 19:32:00,26.0,22.0,-100.00,North,10,13.0,20.0,86,-99.99,,,-99.99,,2013-03-06 00:32:00,
2013-03-05 19:42:00,26.0,22.0,-100.00,North,10,13.0,20.0,86,-99.99,,,-99.99,,2013-03-06 00:42:00,
2013-03-05 19:52:00,26.0,23.0,-100.00,North,0,11.0,20.0,87,-99.99,,,-99.99,,2013-03-06 00:52:00,
2013-03-05 20:02:00,26.0,23.0,-100.00,North,350,10.0,18.0,87,-99.99,,,-99.99,,2013-03-06 01:02:00,
2013-03-05 20:11:00,26.0,23.0,-100.00,North,350,10.0,18.0,87,-99.99,,,-99.99,,2013-03-06 01:11:00,
2013-03-05 20:21:00,26.0,23.0,-100.00,NNE,15,14.0,18.0,88,-99.99,,,-99.99,,2013-03-06 01:21:00,
2013-03-05 20:32:00,26.0,23.0,-100.00,North,10,7.0,18.0,87,-99.99,,,-99.99,,2013-03-06 01:32:00,
2013-03-05 20:42:00,26.0,23.0,-100.00,North,10,7.0,18.0,87,-99.99,,,-99.99,,2013-03-06 01:42:00,
2013-03-05 20:51:00,26.0,23.0,-100.00,North,5,11.0,16.0,87,-99.99,,,-99.99,,2013-03-06 01:51:00,
2013-03-05 21:01:00,26.0,23.0,-100.00,North,5,11.0,16.0,87,-99.99,,,-99.99,,2013-03-06 02:01:00,
2013-03-05 21:11:00,26.0,23.0,-100.00,North,5,11.0,16.0,87,-99.99,,,-99.99,,2013-03-06 02:11:00,
2013-03-05 21:22:00,26.0,22.0,-100.00,North,5,7.0,16.0,87,-99.99,,,-99.99,,2013-03-06 02:22:00,
2013-03-05 21:32:00,26.0,22.0,-100.00,NNE,20,7.0,13.0,87,-99.99,,,-99.99,,2013-03-06 02:32:00,
2013-03-05 21:42:00,26.0,22.0,-100.00,NNE,20,7.0,13.0,87,-99.99,,,-99.99,,2013-03-06 02:42:00,
2013-03-05 21:52:00,26.0,22.0,-100.00,North,355,7.0,13.0,88,-99.99,,,-99.99,,2013-03-06 02:52:00,
2013-03-05 22:02:00,26.0,22.0,-100.00,North,355,7.0,13.0,88,-99.99,,,-99.99,,2013-03-06 03:02:00,
2013-03-05 22:22:00,26.0,23.0,-100.00,NNE,20,6.0,14.0,88,-99.99,,,-99.99,,2013-03-06 03:22:00,
2013-03-05 22:32:00,26.0,23.0,-100.00,North,350,7.0,16.0,87,-99.99,,,-99.99,,2013-03-06 03:32:00,
2013-03-05 22:42:00,26.0,23.0,-100.00,North,350,7.0,16.0,87,-99.99,,,-99.99,,2013-03-06 03:42:00,
2013-03-05 22:52:00,27.0,23.0,-100.00,NNE,15,6.0,11.0,87,-99.99,,,-99.99,,2013-03-06 03:52:00,
2013-03-05 23:02:00,27.0,24.0,-100.00,North,350,8.0,15.0,86,-99.99,,,-99.99,,2013-03-06 04:02:00,
2013-03-05 23:11:00,27.0,24.0,-100.00,North,350,8.0,15.0,86,-99.99,,,-99.99,,2013-03-06 04:11:00,
2013-03-05 23:21:00,27.0,24.0,-100.00,NNW,330,7.0,13.0,86,-99.99,,,-99.99,,2013-03-06 04:21:00,
2013-03-05 23:32:00,28.0,24.0,-100.00,North,355,7.0,14.0,86,-99.99,,,-99.99,,2013-03-06 04:32:00,
2013-03-05 23:42:00,28.0,24.0,-100.00,North,355,7.0,14.0,86,-99.99,,,-99.99,,2013-03-06 04:42:00,
2013-03-05 23:52:00,28.0,24.0,-100.00,NNE,20,6.0,11.0,85,-99.99,,,-99.99,,2013-03-06 04:52:00,